Time;durP1;ratioP1;P1;durP2;ratioP2;P2;SDS_P1;SDS_P2;PMS_P1;PMS_P2;Temp;Humidity;BMP_temperature;BMP_pressure;BME280_temperature;BME280_humidity;BME280_pressure;Samples;Min_cycle;Max_cycle;Signal;HPM_P1;HPM_P2
2021/08/22 00:00:42;;;;;;;8.77;5.05;;;;;;;17.00;100.00;98976.50;5050478;28;20044;-58
2021/08/22 00:03:08;;;;;;;7.93;5.50;;;;;;;16.97;100.00;98972.31;5037222;28;20099;-59
2021/08/22 00:05:34;;;;;;;7.53;4.88;;;;;;;16.93;100.00;98976.94;5033864;28;20052;-59
2021/08/22 00:08:00;;;;;;;9.65;5.30;;;;;;;16.89;100.00;98972.88;5050894;28;20060;-58
2021/08/22 00:10:26;;;;;;;7.85;5.13;;;;;;;16.86;100.00;98972.22;5046605;28;20064;-58
2021/08/22 00:12:52;;;;;;;8.98;5.10;;;;;;;16.72;100.00;98964.50;5046149;28;20036;-58
2021/08/22 00:15:17;;;;;;;7.18;4.93;;;;;;;16.76;100.00;98977.31;5048531;28;20048;-58
2021/08/22 00:17:43;;;;;;;11.98;5.68;;;;;;;16.72;100.00;98980.25;5050625;28;20045;-59
2021/08/22 00:20:10;;;;;;;7.38;5.03;;;;;;;16.69;100.00;98975.22;5047912;28;20072;-59
2021/08/22 00:22:36;;;;;;;7.63;5.05;;;;;;;16.65;100.00;98979.84;5038882;28;20041;-59
2021/08/22 00:25:02;;;;;;;10.00;5.38;;;;;;;16.61;100.00;98978.38;5050533;28;20045;-60
2021/08/22 00:27:28;;;;;;;7.88;5.03;;;;;;;16.58;100.00;98980.38;5049405;28;20047;-58
2021/08/22 00:29:54;;;;;;;6.40;4.90;;;;;;;16.54;100.00;98982.34;5049849;28;20048;-57
2021/08/22 00:32:20;;;;;;;9.65;5.38;;;;;;;16.51;100.00;98979.94;5031915;28;20048;-59
2021/08/22 00:34:49;;;;;;;7.20;5.13;;;;;;;16.42;100.00;98963.06;5028823;28;20083;-58
2021/08/22 00:37:14;;;;;;;10.77;5.50;;;;;;;16.47;100.00;98974.09;5030207;28;20467;-58
2021/08/22 00:39:40;;;;;;;7.13;4.95;;;;;;;16.47;100.00;98981.13;5029528;28;20112;-59
2021/08/22 00:42:06;;;;;;;10.40;5.80;;;;;;;16.36;100.00;98958.25;5028955;28;20052;-59
2021/08/22 00:44:32;;;;;;;9.10;5.43;;;;;;;16.45;100.00;98969.88;5038402;28;20539;-60
2021/08/22 00:46:58;;;;;;;7.40;4.93;;;;;;;16.34;100.00;98959.28;5049730;28;20543;-59
2021/08/22 00:49:24;;;;;;;10.82;5.72;;;;;;;16.42;100.00;98977.97;5048811;28;20040;-58
2021/08/22 00:51:49;;;;;;;8.85;5.55;;;;;;;16.42;100.00;98991.94;5038911;28;20382;-59
2021/08/22 00:54:15;;;;;;;8.18;5.50;;;;;;;16.39;100.00;98979.00;5030127;28;20091;-59
2021/08/22 00:56:41;;;;;;;7.65;5.70;;;;;;;16.40;100.00;98977.22;5036680;28;20120;-59
2021/08/22 00:59:15;;;;;;;9.95;5.82;;;;;;;16.40;100.00;98979.84;5049815;28;20067;-59
2021/08/22 01:01:43;;;;;;;9.10;5.80;;;;;;;16.31;100.00;98965.59;5038822;28;20041;-58
2021/08/22 01:04:18;;;;;;;8.73;5.70;;;;;;;16.37;100.00;98973.03;5028833;28;20748;-58
2021/08/22 01:06:53;;;;;;;11.20;6.10;;;;;;;16.37;100.00;98973.03;5012321;28;20052;-59
2021/08/22 01:09:32;;;;;;;11.73;6.13;;;;;;;16.36;100.00;98973.97;5035973;28;20053;-59
2021/08/22 01:12:02;;;;;;;11.32;5.95;;;;;;;16.35;100.00;98974.91;5048581;28;20424;-58
2021/08/22 01:14:32;;;;;;;9.65;6.35;;;;;;;16.33;100.00;98976.00;5046913;28;20040;-58
2021/08/22 01:16:59;;;;;;;13.40;6.50;;;;;;;16.32;100.00;98976.94;5047362;28;20128;-58
2021/08/22 01:19:28;;;;;;;13.48;5.95;;;;;;;16.28;100.00;98973.66;5033925;28;20079;-58
2021/08/22 01:21:55;;;;;;;10.73;6.10;;;;;;;16.25;100.00;98966.00;5028529;28;20517;-57
2021/08/22 01:24:22;;;;;;;10.23;6.57;;;;;;;16.24;100.00;98973.97;5047492;28;20048;-58
2021/08/22 01:26:49;;;;;;;10.18;6.38;;;;;;;16.13;100.00;98956.34;5048549;28;20033;-58
2021/08/22 01:29:16;;;;;;;12.93;7.57;;;;;;;16.21;100.00;98975.03;5035975;28;20042;-59
2021/08/22 01:31:47;;;;;;;12.18;7.28;;;;;;;16.20;100.00;98970.72;5029691;28;20207;-59
2021/08/22 01:34:13;;;;;;;12.07;7.22;;;;;;;16.18;100.00;98972.59;5028666;28;20737;-60
2021/08/22 01:36:40;;;;;;;12.85;7.63;;;;;;;16.16;100.00;98974.53;5044377;28;20041;-59
2021/08/22 01:39:06;;;;;;;12.63;7.40;;;;;;;16.15;100.00;98972.00;5037271;28;20034;-59
2021/08/22 01:41:34;;;;;;;12.40;7.15;;;;;;;16.15;100.00;98972.00;5029788;28;20402;-58
2021/08/22 01:44:01;;;;;;;12.55;7.10;;;;;;;16.12;100.00;98966.97;5028490;28;20047;-59
2021/08/22 01:46:33;;;;;;;13.25;7.53;;;;;;;16.08;100.00;98982.06;5031438;28;20106;-58
2021/08/22 01:48:59;;;;;;;12.98;8.55;;;;;;;16.04;100.00;98977.97;5039657;28;20042;-58
2021/08/22 01:51:27;;;;;;;12.93;8.32;;;;;;;16.01;100.00;98979.03;5029540;28;20409;-59
2021/08/22 01:53:58;;;;;;;12.98;8.60;;;;;;;15.96;100.00;98973.22;5032218;28;20037;-59
2021/08/22 01:56:28;;;;;;;16.45;9.52;;;;;;;15.92;100.00;98974.38;5083653;28;20136;-58
2021/08/22 01:58:54;;;;;;;16.95;8.45;;;;;;;15.92;100.00;98981.41;5045563;28;20516;-58
2021/08/22 02:01:21;;;;;;;15.27;7.93;;;;;;;15.92;100.00;98987.50;5043654;28;20049;-58
2021/08/22 02:04:09;;;;;;;15.70;8.82;;;;;;;15.91;100.00;98975.31;5053021;28;20045;-59
2021/08/22 02:06:39;;;;;;;14.90;8.90;;;;;;;15.86;100.00;98969.53;5053299;28;20202;-58
2021/08/22 02:09:08;;;;;;;20.10;11.65;;;;;;;15.91;100.00;98972.69;5046118;28;20041;-58
2021/08/22 02:11:44;;;;;;;;;;;;;;;15.90;100.00;98984.16;5016165;28;20164;-57
2021/08/22 02:14:13;;;;;;;20.83;9.82;;;;;;;15.74;100.00;98959.91;5037703;28;19956;-58
2021/08/22 02:16:42;;;;;;;20.58;9.65;;;;;;;15.87;100.00;98980.88;5049782;28;20076;-58
2021/08/22 02:19:08;;;;;;;17.70;9.15;;;;;;;15.85;100.00;98982.78;5046031;28;20115;-58
2021/08/22 02:21:34;;;;;;;21.42;9.27;;;;;;;15.84;100.00;98987.19;5021291;28;20521;-59
2021/08/22 02:24:00;;;;;;;15.23;8.57;;;;;;;15.86;100.00;98989.72;5046632;28;20094;-58
2021/08/22 02:26:25;;;;;;;15.98;8.38;;;;;;;15.83;100.00;98985.50;5032909;28;20529;-58
2021/08/22 02:28:55;;;;;;;14.35;7.55;;;;;;;15.79;100.00;98980.56;5031241;28;20048;-59
2021/08/22 02:31:21;;;;;;;11.10;7.40;;;;;;;15.86;100.00;98994.94;5048923;28;20040;-59
2021/08/22 02:33:47;;;;;;;17.08;7.70;;;;;;;15.75;100.00;98972.06;5051191;28;20094;-59
2021/08/22 02:36:16;;;;;;;8.00;5.50;;;;;;;15.83;100.00;98987.28;5052431;28;20059;-60
2021/08/22 02:38:42;;;;;;;8.95;5.88;;;;;;;15.81;100.00;98989.16;5051356;28;20592;-59
2021/08/22 02:41:08;;;;;;;9.80;5.80;;;;;;;15.80;100.00;98998.81;5032808;28;20132;-59
2021/08/22 02:43:34;;;;;;;13.25;6.75;;;;;;;15.81;100.00;98989.16;5032620;28;20042;-59
2021/08/22 02:45:59;;;;;;;10.85;6.57;;;;;;;15.70;100.00;98970.69;5032549;28;20436;-59
2021/08/22 02:48:25;;;;;;;10.57;6.18;;;;;;;15.81;100.00;98995.22;5047794;28;20068;-59
2021/08/22 02:50:51;;;;;;;8.38;5.65;;;;;;;15.80;100.00;98984.88;5036576;28;20084;-58
2021/08/22 02:53:19;;;;;;;13.88;7.00;;;;;;;15.74;100.00;98982.66;5032243;28;20608;-58
2021/08/22 02:55:45;;;;;;;11.75;6.25;;;;;;;15.73;100.00;98983.59;5032441;28;20056;-58
2021/08/22 02:58:11;;;;;;;10.07;5.95;;;;;;;15.76;100.00;98994.69;5032321;28;20037;-59
2021/08/22 03:00:36;;;;;;;11.43;6.20;;;;;;;15.75;100.00;99000.91;5033690;28;20049;-59
2021/08/22 03:03:02;;;;;;;15.63;7.60;;;;;;;15.75;100.00;99007.94;5031046;28;22104;-59
2021/08/22 03:05:28;;;;;;;10.50;5.63;;;;;;;15.77;100.00;99008.66;5038107;28;20520;-59
2021/08/22 03:07:54;;;;;;;7.90;5.32;;;;;;;15.77;100.00;99014.72;5051817;28;20065;-59
2021/08/22 03:10:20;;;;;;;8.45;5.28;;;;;;;15.81;100.00;99015.34;5040809;28;20057;-60
2021/08/22 03:12:45;;;;;;;9.57;5.47;;;;;;;15.86;100.00;99015.91;5036999;28;20049;-59
2021/08/22 03:15:11;;;;;;;6.75;4.82;;;;;;;15.88;100.00;99014.84;5049968;28;20120;-59
2021/08/22 03:17:37;;;;;;;10.18;4.93;;;;;;;15.88;100.00;99016.63;5052038;28;20124;-59
2021/08/22 03:20:04;;;;;;;7.78;5.45;;;;;;;15.87;100.00;99018.41;5045496;28;20106;-57
2021/08/22 03:22:32;;;;;;;9.63;5.82;;;;;;;16.00;100.00;99034.19;5031862;28;20125;-58
2021/08/22 03:24:58;;;;;;;9.43;5.43;;;;;;;16.08;100.00;99026.63;5019930;28;20045;-58
2021/08/22 03:27:24;;;;;;;10.23;5.68;;;;;;;16.17;100.00;99033.06;5048648;28;20043;-60
2021/08/22 03:29:50;;;;;;;7.97;5.00;;;;;;;16.21;100.00;99035.38;5049057;28;20045;-58
2021/08/22 03:32:19;;;;;;;8.35;5.20;;;;;;;16.30;100.00;99039.13;5030256;28;20076;-58
2021/08/22 03:34:44;;;;;;;9.05;5.03;;;;;;;16.42;99.97;99046.19;5031501;28;20094;-59
2021/08/22 03:37:10;;;;;;;8.82;5.18;;;;;;;16.53;99.35;99047.13;5031943;28;20038;-59
2021/08/22 03:39:36;;;;;;;7.22;5.05;;;;;;;16.53;97.89;99028.75;5043421;28;20505;-58
2021/08/22 03:42:02;;;;;;;10.23;5.00;;;;;;;16.71;97.57;99052.91;5031535;28;20080;-59
2021/08/22 03:44:28;;;;;;;7.55;5.25;;;;;;;16.78;96.47;99055.97;5037727;28;20036;-59
2021/08/22 03:46:53;;;;;;;11.35;5.28;;;;;;;16.81;95.32;99056.56;5049836;28;20071;-59
2021/08/22 03:49:19;;;;;;;7.60;5.40;;;;;;;16.89;94.97;99053.44;5050576;28;20053;-59
2021/08/22 03:51:45;;;;;;;10.07;5.07;;;;;;;16.92;94.29;99064.53;5031070;28;20073;-59
2021/08/22 03:54:10;;;;;;;7.68;5.00;;;;;;;16.97;93.57;99063.38;5030020;28;20535;-58
2021/08/22 03:56:36;;;;;;;7.85;5.40;;;;;;;17.01;93.15;99067.50;5031315;28;20037;-58
2021/08/22 03:59:07;;;;;;;7.85;5.50;;;;;;;17.02;93.27;99059.47;5030710;28;20149;-59
2021/08/22 04:01:34;;;;;;;12.20;6.45;;;;;;;17.12;93.00;99063.13;5032655;28;20041;-58
2021/08/22 04:04:07;;;;;;;8.82;5.18;;;;;;;17.23;92.43;99050.06;5031820;28;20045;-58
2021/08/22 04:06:39;;;;;;;12.00;6.00;;;;;;;17.34;92.10;99050.16;5046328;28;20400;-58
2021/08/22 04:09:07;;;;;;;9.07;5.57;;;;;;;17.46;91.71;99051.06;5030931;28;20501;-59
2021/08/22 04:11:32;;;;;;;8.63;6.22;;;;;;;17.57;91.38;99051.13;5030388;28;20065;-59
2021/08/22 04:13:58;;;;;;;10.27;6.40;;;;;;;17.70;90.59;99049.28;5038624;28;20075;-59
2021/08/22 04:16:24;;;;;;;10.32;5.88;;;;;;;17.80;90.16;99046.81;5045751;28;20519;-58
2021/08/22 04:18:50;;;;;;;11.00;7.07;;;;;;;17.89;89.73;99054.03;5050683;28;20049;-59
2021/08/22 04:21:16;;;;;;;10.35;6.07;;;;;;;17.95;89.29;99053.56;5043530;28;20044;-59
2021/08/22 04:23:41;;;;;;;11.90;7.18;;;;;;;17.97;89.05;99059.56;5049193;28;20432;-59
2021/08/22 04:26:07;;;;;;;8.40;5.82;;;;;;;17.99;88.74;99055.03;5049198;28;20581;-59
2021/08/22 04:28:34;;;;;;;7.80;5.65;;;;;;;18.03;88.52;99048.59;5050438;28;20044;-58
2021/08/22 04:30:59;;;;;;;11.02;6.68;;;;;;;18.14;87.87;99055.66;5041159;28;20035;-58
2021/08/22 04:33:25;;;;;;;8.15;5.70;;;;;;;18.23;87.13;99049.72;5041942;28;20048;-58
2021/08/22 04:35:51;;;;;;;10.98;6.90;;;;;;;18.13;86.71;99027.69;5050124;28;20056;-56
2021/08/22 04:38:17;;;;;;;9.68;6.10;;;;;;;18.29;86.62;99049.25;5050231;28;20091;-59
2021/08/22 04:40:42;;;;;;;10.07;6.68;;;;;;;18.27;86.80;99052.94;5048969;28;20049;-58
2021/08/22 04:43:08;;;;;;;11.70;7.20;;;;;;;18.21;86.62;99056.91;5050178;28;20044;-58
2021/08/22 04:45:34;;;;;;;9.63;5.75;;;;;;;18.20;86.79;99065.75;5050266;28;20045;-58
2021/08/22 04:47:59;;;;;;;11.50;6.45;;;;;;;18.23;86.88;99064.66;5049859;28;20045;-59
2021/08/22 04:50:25;;;;;;;8.02;6.25;;;;;;;18.23;86.80;99064.66;5049804;28;20512;-58
2021/08/22 04:52:51;;;;;;;12.10;8.38;;;;;;;18.26;86.69;99069.69;5044218;28;20043;-57
2021/08/22 04:55:17;;;;;;;11.57;6.47;;;;;;;18.26;86.52;99061.81;5033235;28;20044;-59
2021/08/22 04:57:42;;;;;;;10.40;5.65;;;;;;;18.25;86.50;99073.28;5030266;28;20044;-58
2021/08/22 05:00:09;;;;;;;10.68;5.63;;;;;;;18.26;86.48;99072.34;5030092;28;20543;-59
2021/08/22 05:02:34;;;;;;;12.18;6.45;;;;;;;18.23;86.49;99076.03;5031196;28;20131;-58
2021/08/22 05:05:00;;;;;;;7.05;5.13;;;;;;;18.27;86.44;99082.72;5029789;28;20115;-59
2021/08/22 05:07:26;;;;;;;8.13;4.78;;;;;;;18.22;86.08;99090.13;5029935;28;20138;-58
2021/08/22 05:09:52;;;;;;;5.65;4.10;;;;;;;18.15;85.89;99079.25;5043110;28;20472;-59
2021/08/22 05:12:17;;;;;;;8.35;4.63;;;;;;;18.20;86.05;99087.63;5033209;28;20041;-59
2021/08/22 05:14:43;;;;;;;5.60;3.63;;;;;;;18.21;85.91;99085.84;5013814;28;20398;-59
2021/08/22 05:17:11;;;;;;;6.45;4.60;;;;;;;18.18;85.60;99086.06;5049382;28;20040;-59
2021/08/22 05:19:37;;;;;;;6.05;3.95;;;;;;;18.21;85.76;99091.09;5048504;28;20589;-58
2021/08/22 05:22:03;;;;;;;6.43;4.15;;;;;;;18.21;85.69;99091.09;5038926;28;20056;-60
2021/08/22 05:24:29;;;;;;;8.00;4.30;;;;;;;18.16;85.72;99085.34;5029692;28;20037;-60
2021/08/22 05:26:55;;;;;;;7.10;3.55;;;;;;;18.14;85.62;99097.75;5032354;28;20577;-58
2021/08/22 05:29:21;;;;;;;4.95;3.50;;;;;;;18.21;85.55;99093.72;5042879;28;20039;-58
2021/08/22 05:31:47;;;;;;;4.07;2.80;;;;;;;18.23;85.61;99085.69;5047326;28;20053;-58
2021/08/22 05:34:13;;;;;;;4.25;2.25;;;;;;;18.28;85.29;99094.09;5033937;28;20129;-58
2021/08/22 05:36:40;;;;;;;5.57;3.17;;;;;;;18.25;84.90;99108.34;5033829;28;20037;-59
2021/08/22 05:39:06;;;;;;;4.72;2.72;;;;;;;18.23;85.13;99104.13;5036911;28;20068;-59
2021/08/22 05:41:33;;;;;;;3.60;2.42;;;;;;;18.20;85.19;99099.94;5049124;28;20132;-59
2021/08/22 05:43:59;;;;;;;4.43;2.83;;;;;;;18.20;85.20;99106.03;5015983;28;20620;-59
2021/08/22 05:46:28;;;;;;;17.55;3.83;;;;;;;18.19;85.05;99098.25;5033695;28;20393;-59
2021/08/22 05:48:54;;;;;;;5.47;2.75;;;;;;;18.20;85.39;99099.94;5051006;28;20047;-59
2021/08/22 05:51:20;;;;;;;4.43;2.47;;;;;;;18.18;85.22;99104.47;5049568;28;20049;-58
2021/08/22 05:53:47;;;;;;;6.07;2.88;;;;;;;18.11;85.14;99087.44;5033311;28;20135;-58
2021/08/22 05:56:13;;;;;;;4.95;2.38;;;;;;;18.26;84.66;99103.91;5040443;28;20123;-58
2021/08/22 05:58:39;;;;;;;9.07;3.08;;;;;;;18.32;83.66;99104.25;5053241;28;20135;-59
2021/08/22 06:01:05;;;;;;;2.53;1.88;;;;;;;18.35;82.10;99106.69;5052006;28;20040;-60
2021/08/22 06:03:31;;;;;;;12.63;3.35;;;;;;;18.46;81.43;99111.13;5035160;28;20513;-57
2021/08/22 06:05:58;;;;;;;4.85;2.40;;;;;;;18.57;80.69;99113.84;5032201;28;20045;-60
2021/08/22 06:08:24;;;;;;;3.03;2.10;;;;;;;18.85;79.17;99112.53;5043976;28;20132;-57
2021/08/22 06:10:50;;;;;;;3.45;1.73;;;;;;;19.01;75.89;99105.97;5052910;28;20057;-59
2021/08/22 06:13:16;;;;;;;4.10;2.10;;;;;;;18.82;75.87;99112.78;5044167;28;20063;-59
2021/08/22 06:15:41;;;;;;;6.00;2.08;;;;;;;18.79;76.10;99113.84;5051124;28;20048;-59
2021/08/22 06:18:07;;;;;;;6.25;3.50;;;;;;;18.63;75.49;99110.75;5032891;28;20544;-59
2021/08/22 06:20:33;;;;;;;2.10;1.73;;;;;;;18.54;75.19;99114.06;5050626;28;20060;-57
2021/08/22 06:22:59;;;;;;;3.67;1.92;;;;;;;18.39;75.30;99117.81;5041873;28;20042;-56
2021/08/22 06:25:25;;;;;;;3.22;1.80;;;;;;;18.51;75.45;99115.09;5064249;28;20042;-55
2021/08/22 06:27:50;;;;;;;8.38;2.58;;;;;;;18.55;75.13;99121.84;5057944;28;20530;-56
2021/08/22 06:30:16;;;;;;;3.22;1.70;;;;;;;18.60;75.15;99127.59;5037074;28;20086;-51
2021/08/22 06:32:42;;;;;;;2.63;1.55;;;;;;;18.60;74.17;99132.03;5032676;28;20064;-55
2021/08/22 06:35:08;;;;;;;3.90;1.80;;;;;;;18.67;73.68;99119.22;5048735;28;20493;-54
2021/08/22 06:37:34;;;;;;;5.13;2.00;;;;;;;18.79;73.39;99118.31;5038072;28;20151;-54
2021/08/22 06:40:01;;;;;;;5.13;1.55;;;;;;;18.83;72.84;99110.03;5043245;28;20045;-55
2021/08/22 06:42:27;;;;;;;3.58;2.28;;;;;;;18.93;72.10;99118.06;5042089;28;20432;-56
2021/08/22 06:44:53;;;;;;;2.42;1.25;;;;;;;18.90;70.71;99126.19;5052370;28;20114;-54
2021/08/22 06:47:19;;;;;;;5.72;1.42;;;;;;;18.79;70.98;99131.47;5045559;28;20037;-56
2021/08/22 06:49:45;;;;;;;2.42;1.45;;;;;;;18.69;70.96;99130.47;5052290;28;20504;-58
2021/08/22 06:52:12;;;;;;;6.28;1.67;;;;;;;18.66;70.88;99135.97;5052112;28;20045;-54
2021/08/22 06:54:41;;;;;;;5.95;1.33;;;;;;;18.72;71.07;99123.19;5050602;28;20041;-59
2021/08/22 06:57:08;;;;;;;2.35;1.23;;;;;;;18.87;70.45;99129.91;5043068;28;20038;-58
2021/08/22 06:59:34;;;;;;;2.55;1.45;;;;;;;19.02;70.49;99138.41;5031641;28;20061;-57
2021/08/22 07:02:00;;;;;;;1.73;1.00;;;;;;;18.84;68.39;99145.94;5032128;28;20069;-52
2021/08/22 07:04:25;;;;;;;4.80;1.77;;;;;;;18.65;69.29;99148.31;5032140;28;20090;-58
2021/08/22 07:06:51;;;;;;;1.58;1.10;;;;;;;18.42;69.60;99143.91;5043445;28;20131;-58
2021/08/22 07:09:17;;;;;;;2.08;1.00;;;;;;;18.42;69.61;99150.00;5031462;28;20103;-58
2021/08/22 07:11:43;;;;;;;3.35;0.98;;;;;;;18.48;68.82;99148.69;5031801;28;20087;-58
2021/08/22 07:14:09;;;;;;;3.20;1.30;;;;;;;18.38;68.43;99158.25;5046372;28;20041;-59
2021/08/22 07:16:35;;;;;;;2.22;1.00;;;;;;;18.22;68.99;99161.16;5048870;28;20113;-52
2021/08/22 07:19:01;;;;;;;1.95;1.20;;;;;;;18.26;69.14;99156.53;5031479;28;20485;-59
2021/08/22 07:21:27;;;;;;;1.70;1.20;;;;;;;18.44;69.25;99142.84;5048673;28;20135;-57
2021/08/22 07:23:53;;;;;;;6.43;2.35;;;;;;;18.80;68.90;99154.19;5051381;28;20751;-58
2021/08/22 07:26:18;;;;;;;6.35;3.72;;;;;;;18.94;67.65;99161.91;5049949;28;20048;-58
2021/08/22 07:28:44;;;;;;;7.70;3.80;;;;;;;19.07;66.69;99162.63;5033138;28;20103;-58
2021/08/22 07:31:10;;;;;;;12.07;5.05;;;;;;;19.34;66.14;99164.91;5048874;28;20041;-58
2021/08/22 07:33:35;;;;;;;2.03;1.20;;;;;;;19.55;64.99;99157.13;5049607;28;20044;-57
2021/08/22 07:36:02;;;;;;;4.05;1.45;;;;;;;19.82;63.63;99162.84;5050296;28;20954;-56
2021/08/22 07:38:28;;;;;;;2.13;1.30;;;;;;;19.86;62.82;99165.09;5049409;28;20136;-57
2021/08/22 07:40:55;;;;;;;2.67;1.30;;;;;;;19.96;62.67;99177.53;5046960;28;20040;-59
2021/08/22 07:43:21;;;;;;;7.70;3.42;;;;;;;19.99;62.70;99172.88;5048895;28;20527;-57
2021/08/22 07:45:47;;;;;;;2.85;1.38;;;;;;;20.03;62.76;99170.81;5029105;28;20045;-58
2021/08/22 07:48:13;;;;;;;4.50;1.88;;;;;;;20.00;62.92;99184.25;5047318;28;20516;-57
2021/08/22 07:50:38;;;;;;;14.68;8.05;;;;;;;20.03;63.10;99186.66;5049461;28;20033;-56
2021/08/22 07:53:04;;;;;;;10.63;6.38;;;;;;;20.06;62.94;99194.31;5050344;28;20041;-57
2021/08/22 07:55:30;;;;;;;8.00;4.57;;;;;;;20.04;62.86;99188.34;5050356;28;20119;-57
2021/08/22 07:57:58;;;;;;;3.63;1.90;;;;;;;19.96;62.81;99180.19;5048024;28;20055;-59
2021/08/22 08:00:23;;;;;;;4.03;2.00;;;;;;;20.06;62.24;99194.31;5050368;28;20037;-60
2021/08/22 08:02:49;;;;;;;2.05;1.40;;;;;;;19.95;61.72;99183.78;5048931;28;20131;-58
2021/08/22 08:05:15;;;;;;;2.80;1.58;;;;;;;19.92;61.66;99200.72;5050288;28;20118;-57
2021/08/22 08:07:41;;;;;;;4.40;1.70;;;;;;;19.86;61.52;99182.72;5047110;28;20039;-57
2021/08/22 08:10:08;;;;;;;4.80;3.10;;;;;;;20.04;61.44;99198.88;5047530;28;20049;-59
2021/08/22 08:12:34;;;;;;;2.67;2.10;;;;;;;20.08;61.55;99197.66;5050308;28;20036;-58
2021/08/22 08:15:00;;;;;;;3.70;1.75;;;;;;;20.12;61.43;99196.44;5049571;28;20571;-58
2021/08/22 08:17:26;;;;;;;4.43;1.70;;;;;;;20.06;61.82;99197.78;5045674;28;20044;-57
2021/08/22 08:19:52;;;;;;;4.43;2.28;;;;;;;19.96;62.55;99206.56;5050090;28;20067;-57
2021/08/22 08:22:19;;;;;;;3.42;2.30;;;;;;;19.86;62.90;99209.94;5050150;28;20058;-58
2021/08/22 08:24:44;;;;;;;3.45;1.58;;;;;;;19.71;63.02;99213.81;5049865;28;20532;-58
2021/08/22 08:27:10;;;;;;;7.38;2.45;;;;;;;19.59;63.31;99203.38;5049866;28;20052;-58
2021/08/22 08:29:36;;;;;;;36.33;5.95;;;;;;;19.46;63.66;99216.72;5048515;28;20463;-58
2021/08/22 08:32:02;;;;;;;6.72;2.30;;;;;;;19.37;64.33;99210.31;5049175;28;20051;-57
2021/08/22 08:34:28;;;;;;;21.05;6.97;;;;;;;19.32;64.33;99215.09;5049854;28;20037;-57
2021/08/22 08:36:54;;;;;;;6.03;1.85;;;;;;;19.31;64.48;99215.25;5024662;28;20056;-57
2021/08/22 08:39:20;;;;;;;7.25;3.08;;;;;;;19.14;64.83;99215.69;5046571;28;20534;-57
2021/08/22 08:41:46;;;;;;;2.83;1.88;;;;;;;18.95;65.21;99216.25;5049188;28;20041;-57
2021/08/22 08:44:13;;;;;;;5.75;2.42;;;;;;;18.97;65.40;99227.50;5049532;28;20427;-57
2021/08/22 08:46:45;;;;;;;6.75;2.53;;;;;;;19.00;65.39;99222.84;5049318;28;20071;-58
2021/08/22 08:49:26;;;;;;;19.08;6.15;;;;;;;18.95;65.59;99224.13;5046575;28;20086;-58
2021/08/22 08:52:02;;;;;;;5.38;1.98;;;;;;;18.97;65.70;99230.16;5049524;28;20028;-58
2021/08/22 08:54:30;;;;;;;3.08;1.50;;;;;;;18.96;65.46;99236.38;5048195;28;20040;-57
2021/08/22 08:56:57;;;;;;;2.42;1.80;;;;;;;18.74;65.78;99233.66;5046002;28;20041;-57
2021/08/22 08:59:23;;;;;;;8.27;2.60;;;;;;;18.67;66.54;99233.31;5036269;28;20394;-57
2021/08/22 09:01:52;;;;;;;5.10;2.42;;;;;;;18.75;66.92;99233.56;5036746;28;20059;-58
2021/08/22 09:04:26;;;;;;;2.03;1.30;;;;;;;18.68;66.85;99235.00;5033686;28;20040;-61
2021/08/22 09:07:29;;;;;;;4.40;2.17;;;;;;;18.57;66.05;99237.56;5042118;28;20060;-61
2021/08/22 09:10:14;;;;;;;2.42;2.03;;;;;;;18.49;65.73;99237.25;5037501;28;20128;-62
2021/08/22 09:13:20;;;;;;;3.92;1.40;;;;;;;18.81;64.87;99240.16;5036437;28;20087;-61
2021/08/22 09:16:23;;;;;;;1.75;1.30;;;;;;;19.28;63.00;99239.19;5031118;28;20546;-62
2021/08/22 09:19:20;;;;;;;4.60;1.40;;;;;;;19.70;61.73;99245.56;5037779;28;20135;-61
2021/08/22 09:22:23;;;;;;;2.13;1.27;;;;;;;19.78;61.39;99246.63;5034093;28;20095;-61
2021/08/22 09:25:22;;;;;;;3.35;1.92;;;;;;;20.13;60.54;99249.13;5040855;28;20045;-60
2021/08/22 09:28:44;;;;;;;2.50;1.90;;;;;;;22.41;54.81;99256.06;5040853;28;20045;-61
2021/08/22 09:31:44;;;;;;;4.85;2.20;;;;;;;25.56;47.33;99245.00;5018559;28;20183;-63
2021/08/22 09:34:21;;;;;;;2.83;1.48;;;;;;;27.52;42.78;99253.19;5024297;28;20041;-61
2021/08/22 09:37:22;;;;;;;2.63;1.92;;;;;;;28.53;40.35;99254.06;5030723;28;20083;-62
2021/08/22 09:40:29;;;;;;;2.88;1.20;;;;;;;28.64;39.21;99250.97;5038340;28;20092;-62
2021/08/22 09:43:32;;;;;;;4.63;1.55;;;;;;;29.51;36.75;99251.44;5037630;28;20041;-59
2021/08/22 09:46:36;;;;;;;2.63;1.92;;;;;;;31.19;33.99;99257.31;5039409;28;20041;-61
2021/08/22 09:49:39;;;;;;;3.80;2.00;;;;;;;32.75;31.46;99249.41;5034654;28;20041;-60
2021/08/22 09:52:37;;;;;;;2.75;1.73;;;;;;;33.61;27.60;99251.00;5036347;28;20591;-64
2021/08/22 09:55:15;;;;;;;3.75;2.40;;;;;;;34.58;27.93;99258.13;5034849;28;20044;-63
2021/08/22 09:58:00;;;;;;;;;;;;;;;34.55;26.41;99261.25;5044141;28;20124;-64
2021/08/22 10:01:03;;;;;;;4.20;1.80;;;;;;;34.13;26.92;99254.59;5035636;28;20050;-66
2021/08/22 10:03:53;;;;;;;5.05;1.83;;;;;;;32.62;29.54;99252.03;5038780;28;20079;-63
2021/08/22 10:06:28;;;;;;;3.55;2.38;;;;;;;31.42;30.73;99262.44;5042992;28;20048;-64
2021/08/22 10:09:02;;;;;;;1.98;1.23;;;;;;;30.91;30.66;99265.31;5037457;28;20045;-62
2021/08/22 10:11:57;;;;;;;4.32;1.90;;;;;;;29.83;32.76;99253.75;5028390;28;20045;-63
2021/08/22 10:14:26;;;;;;;3.88;2.40;;;;;;;29.47;34.04;99267.03;5036319;28;20067;-63
2021/08/22 10:16:52;;;;;;;4.20;2.30;;;;;;;31.56;31.03;99270.38;5037839;28;20109;-66
2021/08/22 10:19:25;;;;;;;3.33;1.98;;;;;;;33.46;28.34;99253.13;5048899;28;20045;-64
2021/08/22 10:22:11;;;;;;;2.70;1.63;;;;;;;31.96;28.31;99267.94;5041755;28;20424;-65
2021/08/22 10:24:43;;;;;;;2.45;1.55;;;;;;;30.26;29.88;99260.91;5044700;28;20087;-65
2021/08/22 10:27:11;;;;;;;6.20;3.97;;;;;;;29.54;31.63;99270.66;5047726;28;20047;-66
2021/08/22 10:29:49;;;;;;;3.65;2.80;;;;;;;31.58;29.42;99264.84;5040283;28;20061;-60
2021/08/22 10:32:16;;;;;;;1.75;1.65;;;;;;;33.32;26.71;99259.59;5036513;28;20350;-61
2021/08/22 10:34:47;;;;;;;2.08;1.88;;;;;;;34.30;25.54;99261.19;5038534;28;20136;-66
2021/08/22 10:37:39;;;;;;;2.33;1.80;;;;;;;34.41;25.05;99275.88;5054532;28;20047;-67
2021/08/22 10:40:23;;;;;;;2.30;2.10;;;;;;;35.51;24.39;99279.88;5044160;28;20513;-63
2021/08/22 10:43:05;;;;;;;4.47;2.20;;;;;;;36.43;23.09;99279.66;5038198;28;20041;-62
2021/08/22 10:45:40;;;;;;;7.88;3.13;;;;;;;37.16;22.74;99279.41;5035626;28;20433;-63
2021/08/22 10:48:26;;;;;;;2.80;2.22;;;;;;;37.85;21.83;99275.06;5038951;28;20416;-62
2021/08/22 10:50:59;;;;;;;3.67;2.45;;;;;;;38.18;21.28;99285.28;5035391;28;20037;-63
2021/08/22 10:53:25;;;;;;;6.82;2.80;;;;;;;37.61;21.73;99281.59;5036096;28;20065;-62
2021/08/22 10:55:51;;;;;;;2.92;1.50;;;;;;;36.82;22.36;99269.34;5040916;28;20045;-62
2021/08/22 10:58:16;;;;;;;4.15;2.45;;;;;;;34.84;23.72;99276.06;5036535;28;20521;-62
2021/08/22 11:00:43;;;;;;;4.05;3.08;;;;;;;34.33;24.42;99268.03;5034424;28;20060;-63
2021/08/22 11:03:17;;;;;;;6.90;3.70;;;;;;;35.38;23.86;99275.44;5037960;28;20111;-62
2021/08/22 11:05:44;;;;;;;4.80;2.70;;;;;;;36.75;22.92;99271.31;5043547;28;20048;-63
2021/08/22 11:08:24;;;;;;;5.93;1.50;;;;;;;35.87;22.93;99260.97;5046064;28;20063;-62
2021/08/22 11:11:06;;;;;;;2.53;1.20;;;;;;;33.90;24.37;99263.22;5039276;28;20052;-64
2021/08/22 11:13:32;;;;;;;4.10;1.42;;;;;;;32.52;26.05;99265.88;5040340;28;20068;-61
2021/08/22 11:16:07;;;;;;;7.18;3.72;;;;;;;31.41;27.70;99268.81;5037347;28;20531;-63
2021/08/22 11:18:33;;;;;;;38.10;8.20;;;;;;;30.91;29.25;99272.53;5041153;28;20041;-61
2021/08/22 11:20:59;;;;;;;5.68;2.83;;;;;;;30.47;29.97;99270.03;5030952;28;20082;-60
2021/08/22 11:23:25;;;;;;;6.95;2.50;;;;;;;30.15;30.60;99258.69;5036050;28;20099;-61
2021/08/22 11:26:05;;;;;;;13.15;4.22;;;;;;;32.21;28.41;99274.50;5037091;28;20037;-60
2021/08/22 11:28:31;;;;;;;2.80;1.75;;;;;;;32.27;28.05;99279.06;5038090;28;20041;-61
2021/08/22 11:30:57;;;;;;;2.45;1.60;;;;;;;33.08;26.03;99284.44;5022511;28;20033;-61
2021/08/22 11:33:27;;;;;;;5.32;2.30;;;;;;;32.32;27.23;99284.69;5031752;28;20572;-60
2021/08/22 11:35:54;;;;;;;3.05;1.30;;;;;;;31.09;28.71;99278.31;5035206;28;20041;-60
2021/08/22 11:38:20;;;;;;;2.05;1.55;;;;;;;29.95;29.98;99280.91;5035134;28;20071;-61
2021/08/22 11:40:46;;;;;;;3.55;2.20;;;;;;;29.14;31.01;99277.22;5043044;28;20053;-62